sensor_id;sensor_type;location;lat;lon;timestamp;P1;durP1;ratioP1;P2;durP2;ratioP2
80891;SDS011;70343;51.530;5.050;2023-06-14T00:01:24;4.95;;;3.72;;
80891;SDS011;70343;51.530;5.050;2023-06-14T00:03:49;4.53;;;4.13;;
80891;SDS011;70343;51.530;5.050;2023-06-14T00:06:15;5.40;;;3.83;;
80891;SDS011;70343;51.530;5.050;2023-06-14T00:08:40;5.05;;;4.13;;
80891;SDS011;70343;51.530;5.050;2023-06-14T00:11:07;8.43;;;4.38;;
80891;SDS011;70343;51.530;5.050;2023-06-14T00:13:33;5.95;;;4.07;;
80891;SDS011;70343;51.530;5.050;2023-06-14T00:15:58;6.20;;;4.03;;
80891;SDS011;70343;51.530;5.050;2023-06-14T00:18:24;5.55;;;4.05;;
80891;SDS011;70343;51.530;5.050;2023-06-14T00:20:50;5.30;;;4.00;;
80891;SDS011;70343;51.530;5.050;2023-06-14T00:23:17;6.82;;;4.25;;
80891;SDS011;70343;51.530;5.050;2023-06-14T00:25:42;5.65;;;3.90;;
80891;SDS011;70343;51.530;5.050;2023-06-14T00:28:08;5.82;;;3.92;;
80891;SDS011;70343;51.530;5.050;2023-06-14T00:30:34;4.57;;;3.95;;
80891;SDS011;70343;51.530;5.050;2023-06-14T00:33:01;5.70;;;3.70;;
80891;SDS011;70343;51.530;5.050;2023-06-14T00:35:27;5.72;;;4.20;;
80891;SDS011;70343;51.530;5.050;2023-06-14T00:37:56;4.53;;;3.72;;
80891;SDS011;70343;51.530;5.050;2023-06-14T00:40:22;5.20;;;3.55;;
80891;SDS011;70343;51.530;5.050;2023-06-14T00:42:47;4.13;;;3.67;;
80891;SDS011;70343;51.530;5.050;2023-06-14T00:45:13;4.25;;;3.85;;
80891;SDS011;70343;51.530;5.050;2023-06-14T00:47:40;4.60;;;3.72;;
80891;SDS011;70343;51.530;5.050;2023-06-14T00:50:08;4.45;;;3.80;;
80891;SDS011;70343;51.530;5.050;2023-06-14T00:52:35;5.07;;;3.30;;
80891;SDS011;70343;51.530;5.050;2023-06-14T00:55:01;5.85;;;3.65;;
80891;SDS011;70343;51.530;5.050;2023-06-14T00:57:28;5.18;;;3.85;;
80891;SDS011;70343;51.530;5.050;2023-06-14T00:59:57;5.68;;;3.53;;
80891;SDS011;70343;51.530;5.050;2023-06-14T01:02:23;4.95;;;3.47;;
80891;SDS011;70343;51.530;5.050;2023-06-14T01:04:49;6.53;;;3.70;;
80891;SDS011;70343;51.530;5.050;2023-06-14T01:10:41;5.78;;;3.85;;
80891;SDS011;70343;51.530;5.050;2023-06-14T01:13:21;5.75;;;3.60;;
80891;SDS011;70343;51.530;5.050;2023-06-14T01:15:53;5.72;;;3.58;;
80891;SDS011;70343;51.530;5.050;2023-06-14T01:18:20;6.47;;;3.95;;
80891;SDS011;70343;51.530;5.050;2023-06-14T01:20:49;7.75;;;4.28;;
80891;SDS011;70343;51.530;5.050;2023-06-14T01:23:19;4.93;;;3.88;;
80891;SDS011;70343;51.530;5.050;2023-06-14T01:25:46;3.75;;;3.28;;
80891;SDS011;70343;51.530;5.050;2023-06-14T01:28:13;3.95;;;3.30;;
80891;SDS011;70343;51.530;5.050;2023-06-14T01:30:42;5.70;;;3.90;;
80891;SDS011;70343;51.530;5.050;2023-06-14T01:33:11;5.28;;;3.65;;
80891;SDS011;70343;51.530;5.050;2023-06-14T01:35:39;5.55;;;3.88;;
80891;SDS011;70343;51.530;5.050;2023-06-14T01:38:06;6.78;;;3.50;;
80891;SDS011;70343;51.530;5.050;2023-06-14T01:40:33;6.32;;;3.28;;
80891;SDS011;70343;51.530;5.050;2023-06-14T01:43:00;4.90;;;3.60;;
80891;SDS011;70343;51.530;5.050;2023-06-14T01:45:28;4.13;;;3.47;;
80891;SDS011;70343;51.530;5.050;2023-06-14T01:47:56;6.50;;;3.17;;
80891;SDS011;70343;51.530;5.050;2023-06-14T01:50:22;5.57;;;3.63;;
80891;SDS011;70343;51.530;5.050;2023-06-14T01:52:47;8.02;;;3.90;;
80891;SDS011;70343;51.530;5.050;2023-06-14T01:55:13;6.22;;;3.63;;
80891;SDS011;70343;51.530;5.050;2023-06-14T01:57:38;7.13;;;3.90;;
80891;SDS011;70343;51.530;5.050;2023-06-14T02:00:04;6.72;;;3.33;;
80891;SDS011;70343;51.530;5.050;2023-06-14T02:02:38;4.57;;;3.88;;
80891;SDS011;70343;51.530;5.050;2023-06-14T02:05:04;5.80;;;3.80;;
80891;SDS011;70343;51.530;5.050;2023-06-14T02:07:30;4.45;;;3.03;;
80891;SDS011;70343;51.530;5.050;2023-06-14T02:09:56;4.07;;;3.72;;
80891;SDS011;70343;51.530;5.050;2023-06-14T02:12:22;5.30;;;3.60;;
80891;SDS011;70343;51.530;5.050;2023-06-14T02:14:47;5.32;;;3.80;;
80891;SDS011;70343;51.530;5.050;2023-06-14T02:17:14;4.90;;;3.58;;
80891;SDS011;70343;51.530;5.050;2023-06-14T02:19:40;5.13;;;3.58;;
80891;SDS011;70343;51.530;5.050;2023-06-14T02:22:05;6.43;;;3.50;;
80891;SDS011;70343;51.530;5.050;2023-06-14T02:24:33;5.13;;;3.33;;
80891;SDS011;70343;51.530;5.050;2023-06-14T02:26:59;8.52;;;3.08;;
80891;SDS011;70343;51.530;5.050;2023-06-14T02:29:25;4.97;;;3.53;;
80891;SDS011;70343;51.530;5.050;2023-06-14T02:31:50;6.97;;;3.30;;
80891;SDS011;70343;51.530;5.050;2023-06-14T02:34:19;5.53;;;3.92;;
80891;SDS011;70343;51.530;5.050;2023-06-14T02:36:47;3.90;;;3.05;;
80891;SDS011;70343;51.530;5.050;2023-06-14T02:39:13;6.20;;;3.65;;
80891;SDS011;70343;51.530;5.050;2023-06-14T02:41:38;5.05;;;3.38;;
80891;SDS011;70343;51.530;5.050;2023-06-14T02:44:04;4.65;;;3.72;;
80891;SDS011;70343;51.530;5.050;2023-06-14T02:46:29;4.00;;;3.60;;
80891;SDS011;70343;51.530;5.050;2023-06-14T02:48:55;8.27;;;3.50;;
80891;SDS011;70343;51.530;5.050;2023-06-14T02:51:20;6.97;;;3.50;;
80891;SDS011;70343;51.530;5.050;2023-06-14T02:53:46;6.05;;;3.95;;
80891;SDS011;70343;51.530;5.050;2023-06-14T02:56:11;4.68;;;3.28;;
80891;SDS011;70343;51.530;5.050;2023-06-14T02:58:37;6.05;;;3.45;;
80891;SDS011;70343;51.530;5.050;2023-06-14T03:01:05;7.78;;;3.70;;
80891;SDS011;70343;51.530;5.050;2023-06-14T03:03:33;4.10;;;3.70;;
80891;SDS011;70343;51.530;5.050;2023-06-14T03:05:59;4.00;;;3.58;;
80891;SDS011;70343;51.530;5.050;2023-06-14T03:08:31;5.95;;;3.95;;
80891;SDS011;70343;51.530;5.050;2023-06-14T03:11:06;5.30;;;3.58;;
80891;SDS011;70343;51.530;5.050;2023-06-14T03:13:34;4.10;;;3.60;;
80891;SDS011;70343;51.530;5.050;2023-06-14T03:16:00;4.35;;;3.58;;
80891;SDS011;70343;51.530;5.050;2023-06-14T03:18:29;6.93;;;3.38;;
80891;SDS011;70343;51.530;5.050;2023-06-14T03:20:56;6.60;;;3.60;;
80891;SDS011;70343;51.530;5.050;2023-06-14T03:23:24;4.32;;;3.80;;
80891;SDS011;70343;51.530;5.050;2023-06-14T03:25:50;7.18;;;3.53;;
80891;SDS011;70343;51.530;5.050;2023-06-14T03:28:16;4.28;;;3.30;;
80891;SDS011;70343;51.530;5.050;2023-06-14T03:30:42;3.92;;;3.08;;
80891;SDS011;70343;51.530;5.050;2023-06-14T03:33:08;6.50;;;3.63;;
80891;SDS011;70343;51.530;5.050;2023-06-14T03:35:37;4.55;;;3.60;;
80891;SDS011;70343;51.530;5.050;2023-06-14T03:38:03;6.30;;;4.00;;
80891;SDS011;70343;51.530;5.050;2023-06-14T03:40:29;6.40;;;4.07;;
80891;SDS011;70343;51.530;5.050;2023-06-14T03:43:00;5.65;;;3.40;;
80891;SDS011;70343;51.530;5.050;2023-06-14T03:45:26;6.78;;;4.15;;
80891;SDS011;70343;51.530;5.050;2023-06-14T03:47:52;5.30;;;3.90;;
80891;SDS011;70343;51.530;5.050;2023-06-14T03:50:18;5.32;;;3.58;;
80891;SDS011;70343;51.530;5.050;2023-06-14T03:52:44;4.85;;;4.40;;
80891;SDS011;70343;51.530;5.050;2023-06-14T03:55:11;5.85;;;3.47;;
80891;SDS011;70343;51.530;5.050;2023-06-14T03:57:39;7.93;;;3.60;;
80891;SDS011;70343;51.530;5.050;2023-06-14T04:00:09;5.45;;;3.63;;
80891;SDS011;70343;51.530;5.050;2023-06-14T04:02:39;4.88;;;3.63;;
80891;SDS011;70343;51.530;5.050;2023-06-14T04:05:05;6.18;;;3.45;;
80891;SDS011;70343;51.530;5.050;2023-06-14T04:07:34;4.03;;;3.63;;
80891;SDS011;70343;51.530;5.050;2023-06-14T04:10:10;4.60;;;3.70;;
80891;SDS011;70343;51.530;5.050;2023-06-14T04:12:37;7.85;;;4.10;;
80891;SDS011;70343;51.530;5.050;2023-06-14T04:15:03;6.57;;;3.42;;
80891;SDS011;70343;51.530;5.050;2023-06-14T04:17:31;5.72;;;3.50;;
80891;SDS011;70343;51.530;5.050;2023-06-14T04:19:58;5.45;;;3.53;;
80891;SDS011;70343;51.530;5.050;2023-06-14T04:22:25;5.43;;;3.65;;
80891;SDS011;70343;51.530;5.050;2023-06-14T04:24:54;6.10;;;3.78;;
80891;SDS011;70343;51.530;5.050;2023-06-14T04:27:25;4.78;;;3.70;;
80891;SDS011;70343;51.530;5.050;2023-06-14T04:29:52;5.40;;;3.53;;
80891;SDS011;70343;51.530;5.050;2023-06-14T04:32:24;4.18;;;3.50;;
80891;SDS011;70343;51.530;5.050;2023-06-14T04:34:55;3.97;;;3.58;;
80891;SDS011;70343;51.530;5.050;2023-06-14T04:37:22;5.15;;;3.72;;
80891;SDS011;70343;51.530;5.050;2023-06-14T04:39:48;7.40;;;3.88;;
80891;SDS011;70343;51.530;5.050;2023-06-14T04:42:16;8.85;;;4.35;;
80891;SDS011;70343;51.530;5.050;2023-06-14T04:44:43;4.32;;;3.50;;
80891;SDS011;70343;51.530;5.050;2023-06-14T04:47:10;5.38;;;3.38;;
80891;SDS011;70343;51.530;5.050;2023-06-14T04:49:37;6.63;;;3.70;;
80891;SDS011;70343;51.530;5.050;2023-06-14T04:52:05;8.85;;;3.70;;
80891;SDS011;70343;51.530;5.050;2023-06-14T04:54:34;4.53;;;4.00;;
80891;SDS011;70343;51.530;5.050;2023-06-14T04:57:03;4.90;;;3.33;;
80891;SDS011;70343;51.530;5.050;2023-06-14T04:59:31;5.78;;;3.72;;
80891;SDS011;70343;51.530;5.050;2023-06-14T05:01:59;4.50;;;3.33;;
80891;SDS011;70343;51.530;5.050;2023-06-14T05:04:25;5.53;;;3.70;;
80891;SDS011;70343;51.530;5.050;2023-06-14T05:06:52;6.18;;;3.53;;
80891;SDS011;70343;51.530;5.050;2023-06-14T05:09:20;6.30;;;3.58;;
80891;SDS011;70343;51.530;5.050;2023-06-14T05:11:46;5.13;;;3.75;;
80891;SDS011;70343;51.530;5.050;2023-06-14T05:14:13;4.07;;;3.58;;
80891;SDS011;70343;51.530;5.050;2023-06-14T05:16:39;6.72;;;3.50;;
80891;SDS011;70343;51.530;5.050;2023-06-14T05:19:05;4.82;;;3.67;;
80891;SDS011;70343;51.530;5.050;2023-06-14T05:21:32;5.15;;;3.90;;
80891;SDS011;70343;51.530;5.050;2023-06-14T05:23:59;5.40;;;3.58;;
80891;SDS011;70343;51.530;5.050;2023-06-14T05:26:25;4.70;;;3.72;;
80891;SDS011;70343;51.530;5.050;2023-06-14T05:28:58;7.07;;;4.20;;
80891;SDS011;70343;51.530;5.050;2023-06-14T05:31:25;4.97;;;3.47;;
80891;SDS011;70343;51.530;5.050;2023-06-14T05:33:51;3.90;;;3.58;;
80891;SDS011;70343;51.530;5.050;2023-06-14T05:36:17;6.65;;;4.20;;
80891;SDS011;70343;51.530;5.050;2023-06-14T05:38:43;5.13;;;3.83;;
80891;SDS011;70343;51.530;5.050;2023-06-14T05:41:08;5.95;;;4.03;;
80891;SDS011;70343;51.530;5.050;2023-06-14T05:43:34;5.20;;;3.50;;
80891;SDS011;70343;51.530;5.050;2023-06-14T05:45:59;6.68;;;4.15;;
80891;SDS011;70343;51.530;5.050;2023-06-14T05:48:25;5.28;;;3.78;;
80891;SDS011;70343;51.530;5.050;2023-06-14T05:50:50;6.30;;;4.22;;
80891;SDS011;70343;51.530;5.050;2023-06-14T05:53:16;5.68;;;4.10;;
80891;SDS011;70343;51.530;5.050;2023-06-14T05:55:42;8.30;;;4.95;;
80891;SDS011;70343;51.530;5.050;2023-06-14T05:58:07;5.80;;;4.00;;
80891;SDS011;70343;51.530;5.050;2023-06-14T06:00:33;6.13;;;4.22;;
80891;SDS011;70343;51.530;5.050;2023-06-14T06:02:58;6.05;;;4.00;;
80891;SDS011;70343;51.530;5.050;2023-06-14T06:05:24;9.05;;;4.60;;
80891;SDS011;70343;51.530;5.050;2023-06-14T06:07:49;9.45;;;4.07;;
80891;SDS011;70343;51.530;5.050;2023-06-14T06:10:16;7.28;;;4.28;;
80891;SDS011;70343;51.530;5.050;2023-06-14T06:12:41;5.03;;;4.45;;
80891;SDS011;70343;51.530;5.050;2023-06-14T06:15:07;6.28;;;4.40;;
80891;SDS011;70343;51.530;5.050;2023-06-14T06:17:37;5.05;;;4.10;;
80891;SDS011;70343;51.530;5.050;2023-06-14T06:20:03;6.63;;;4.05;;
80891;SDS011;70343;51.530;5.050;2023-06-14T06:22:30;4.78;;;4.07;;
80891;SDS011;70343;51.530;5.050;2023-06-14T06:24:56;6.60;;;4.95;;
80891;SDS011;70343;51.530;5.050;2023-06-14T06:27:21;5.60;;;4.15;;
80891;SDS011;70343;51.530;5.050;2023-06-14T06:29:47;10.35;;;4.60;;
80891;SDS011;70343;51.530;5.050;2023-06-14T06:32:14;6.28;;;4.63;;
80891;SDS011;70343;51.530;5.050;2023-06-14T06:34:40;5.13;;;4.28;;
80891;SDS011;70343;51.530;5.050;2023-06-14T06:37:05;6.05;;;4.07;;
80891;SDS011;70343;51.530;5.050;2023-06-14T06:39:31;6.00;;;4.80;;
80891;SDS011;70343;51.530;5.050;2023-06-14T06:41:56;6.93;;;4.20;;
80891;SDS011;70343;51.530;5.050;2023-06-14T06:44:31;5.75;;;4.07;;
80891;SDS011;70343;51.530;5.050;2023-06-14T06:46:57;5.13;;;4.30;;
80891;SDS011;70343;51.530;5.050;2023-06-14T06:49:23;7.05;;;4.05;;
80891;SDS011;70343;51.530;5.050;2023-06-14T06:52:00;5.68;;;4.40;;
80891;SDS011;70343;51.530;5.050;2023-06-14T06:54:27;4.50;;;4.10;;
80891;SDS011;70343;51.530;5.050;2023-06-14T06:56:53;6.75;;;4.32;;
80891;SDS011;70343;51.530;5.050;2023-06-14T06:59:18;6.45;;;4.38;;
80891;SDS011;70343;51.530;5.050;2023-06-14T07:01:44;6.05;;;4.13;;
80891;SDS011;70343;51.530;5.050;2023-06-14T07:04:09;6.50;;;3.90;;
80891;SDS011;70343;51.530;5.050;2023-06-14T07:06:35;5.28;;;4.35;;
80891;SDS011;70343;51.530;5.050;2023-06-14T07:09:01;5.15;;;4.45;;
80891;SDS011;70343;51.530;5.050;2023-06-14T07:11:27;7.65;;;4.50;;
80891;SDS011;70343;51.530;5.050;2023-06-14T07:13:52;6.22;;;4.38;;
80891;SDS011;70343;51.530;5.050;2023-06-14T07:16:18;7.95;;;4.25;;
80891;SDS011;70343;51.530;5.050;2023-06-14T07:18:44;6.75;;;4.07;;
80891;SDS011;70343;51.530;5.050;2023-06-14T07:21:09;5.20;;;4.10;;
80891;SDS011;70343;51.530;5.050;2023-06-14T07:23:35;6.18;;;4.95;;
80891;SDS011;70343;51.530;5.050;2023-06-14T07:26:01;5.50;;;4.05;;
80891;SDS011;70343;51.530;5.050;2023-06-14T07:28:26;5.68;;;3.75;;
80891;SDS011;70343;51.530;5.050;2023-06-14T07:30:52;5.78;;;4.10;;
80891;SDS011;70343;51.530;5.050;2023-06-14T07:33:17;7.40;;;4.28;;
80891;SDS011;70343;51.530;5.050;2023-06-14T07:35:43;4.90;;;3.92;;
80891;SDS011;70343;51.530;5.050;2023-06-14T07:38:08;8.45;;;4.03;;
80891;SDS011;70343;51.530;5.050;2023-06-14T07:40:34;6.25;;;4.47;;
80891;SDS011;70343;51.530;5.050;2023-06-14T07:42:59;4.80;;;4.40;;
80891;SDS011;70343;51.530;5.050;2023-06-14T07:45:26;5.50;;;4.35;;
80891;SDS011;70343;51.530;5.050;2023-06-14T07:47:52;8.10;;;4.10;;
80891;SDS011;70343;51.530;5.050;2023-06-14T07:50:17;4.80;;;3.80;;
80891;SDS011;70343;51.530;5.050;2023-06-14T07:52:43;4.47;;;4.05;;
80891;SDS011;70343;51.530;5.050;2023-06-14T07:55:09;5.72;;;4.10;;
80891;SDS011;70343;51.530;5.050;2023-06-14T07:57:34;4.63;;;3.88;;
80891;SDS011;70343;51.530;5.050;2023-06-14T08:00:00;9.85;;;5.18;;
80891;SDS011;70343;51.530;5.050;2023-06-14T08:02:26;6.85;;;3.95;;
80891;SDS011;70343;51.530;5.050;2023-06-14T08:04:51;6.32;;;4.07;;
80891;SDS011;70343;51.530;5.050;2023-06-14T08:07:17;4.30;;;3.75;;
80891;SDS011;70343;51.530;5.050;2023-06-14T08:09:43;6.82;;;3.92;;
80891;SDS011;70343;51.530;5.050;2023-06-14T08:12:08;6.93;;;4.93;;
80891;SDS011;70343;51.530;5.050;2023-06-14T08:14:38;5.05;;;4.25;;
80891;SDS011;70343;51.530;5.050;2023-06-14T08:17:04;7.13;;;4.30;;
80891;SDS011;70343;51.530;5.050;2023-06-14T08:19:30;5.10;;;3.95;;
80891;SDS011;70343;51.530;5.050;2023-06-14T08:21:56;8.13;;;4.60;;
80891;SDS011;70343;51.530;5.050;2023-06-14T08:24:22;6.60;;;4.25;;
80891;SDS011;70343;51.530;5.050;2023-06-14T08:26:55;5.47;;;3.30;;
80891;SDS011;70343;51.530;5.050;2023-06-14T08:29:21;6.40;;;3.55;;
80891;SDS011;70343;51.530;5.050;2023-06-14T08:31:47;5.75;;;3.85;;
80891;SDS011;70343;51.530;5.050;2023-06-14T08:34:13;9.38;;;5.63;;
80891;SDS011;70343;51.530;5.050;2023-06-14T08:36:38;7.00;;;4.25;;
80891;SDS011;70343;51.530;5.050;2023-06-14T08:39:04;6.65;;;4.30;;
80891;SDS011;70343;51.530;5.050;2023-06-14T08:41:29;6.43;;;3.95;;
80891;SDS011;70343;51.530;5.050;2023-06-14T08:43:56;6.90;;;4.22;;
80891;SDS011;70343;51.530;5.050;2023-06-14T08:46:21;5.93;;;3.60;;
80891;SDS011;70343;51.530;5.050;2023-06-14T08:48:52;5.82;;;3.22;;
80891;SDS011;70343;51.530;5.050;2023-06-14T08:51:22;4.95;;;3.42;;
80891;SDS011;70343;51.530;5.050;2023-06-14T08:53:50;4.63;;;3.40;;
80891;SDS011;70343;51.530;5.050;2023-06-14T08:56:18;8.68;;;3.60;;
80891;SDS011;70343;51.530;5.050;2023-06-14T08:58:45;7.65;;;4.07;;
80891;SDS011;70343;51.530;5.050;2023-06-14T09:01:13;8.70;;;3.88;;
80891;SDS011;70343;51.530;5.050;2023-06-14T09:03:41;3.72;;;3.00;;
80891;SDS011;70343;51.530;5.050;2023-06-14T09:06:07;5.88;;;3.58;;
80891;SDS011;70343;51.530;5.050;2023-06-14T09:08:39;6.43;;;3.25;;
80891;SDS011;70343;51.530;5.050;2023-06-14T09:11:12;6.97;;;3.45;;
80891;SDS011;70343;51.530;5.050;2023-06-14T09:13:40;4.65;;;2.90;;
80891;SDS011;70343;51.530;5.050;2023-06-14T09:16:06;5.13;;;2.95;;
80891;SDS011;70343;51.530;5.050;2023-06-14T09:18:39;3.28;;;2.90;;
80891;SDS011;70343;51.530;5.050;2023-06-14T09:21:09;4.95;;;3.10;;
80891;SDS011;70343;51.530;5.050;2023-06-14T09:23:36;5.50;;;2.63;;
80891;SDS011;70343;51.530;5.050;2023-06-14T09:26:16;6.13;;;3.10;;
80891;SDS011;70343;51.530;5.050;2023-06-14T09:28:43;7.50;;;3.40;;
80891;SDS011;70343;51.530;5.050;2023-06-14T09:31:10;4.10;;;2.85;;
80891;SDS011;70343;51.530;5.050;2023-06-14T09:33:37;3.85;;;2.80;;
80891;SDS011;70343;51.530;5.050;2023-06-14T09:36:03;3.92;;;2.83;;
80891;SDS011;70343;51.530;5.050;2023-06-14T09:38:30;8.73;;;4.40;;
80891;SDS011;70343;51.530;5.050;2023-06-14T09:40:58;4.80;;;3.00;;
80891;SDS011;70343;51.530;5.050;2023-06-14T09:43:24;4.03;;;2.72;;
80891;SDS011;70343;51.530;5.050;2023-06-14T09:45:52;5.72;;;2.45;;
80891;SDS011;70343;51.530;5.050;2023-06-14T09:48:19;4.57;;;2.60;;
80891;SDS011;70343;51.530;5.050;2023-06-14T09:50:45;4.15;;;2.65;;
80891;SDS011;70343;51.530;5.050;2023-06-14T09:53:12;4.35;;;2.30;;
80891;SDS011;70343;51.530;5.050;2023-06-14T09:55:40;6.75;;;2.85;;
80891;SDS011;70343;51.530;5.050;2023-06-14T09:58:07;2.55;;;2.20;;
80891;SDS011;70343;51.530;5.050;2023-06-14T10:00:33;3.28;;;2.55;;
80891;SDS011;70343;51.530;5.050;2023-06-14T10:03:00;3.38;;;2.50;;
80891;SDS011;70343;51.530;5.050;2023-06-14T10:05:32;2.65;;;2.03;;
80891;SDS011;70343;51.530;5.050;2023-06-14T10:08:04;2.88;;;2.00;;
80891;SDS011;70343;51.530;5.050;2023-06-14T10:10:33;3.92;;;2.20;;
80891;SDS011;70343;51.530;5.050;2023-06-14T10:12:58;2.28;;;2.08;;
80891;SDS011;70343;51.530;5.050;2023-06-14T10:15:32;2.13;;;1.92;;
80891;SDS011;70343;51.530;5.050;2023-06-14T10:18:07;6.78;;;1.90;;
80891;SDS011;70343;51.530;5.050;2023-06-14T10:21:01;3.63;;;2.00;;
80891;SDS011;70343;51.530;5.050;2023-06-14T10:23:29;1.90;;;1.48;;
80891;SDS011;70343;51.530;5.050;2023-06-14T10:25:58;2.28;;;1.48;;
80891;SDS011;70343;51.530;5.050;2023-06-14T10:28:25;1.58;;;1.48;;
80891;SDS011;70343;51.530;5.050;2023-06-14T10:31:07;1.73;;;1.52;;
80891;SDS011;70343;51.530;5.050;2023-06-14T10:33:48;2.78;;;1.50;;
80891;SDS011;70343;51.530;5.050;2023-06-14T10:36:30;2.85;;;1.20;;
80891;SDS011;70343;51.530;5.050;2023-06-14T10:41:36;1.40;;;1.10;;
80891;SDS011;70343;51.530;5.050;2023-06-14T10:46:38;1.52;;;1.17;;
80891;SDS011;70343;51.530;5.050;2023-06-14T10:49:04;1.60;;;1.40;;
80891;SDS011;70343;51.530;5.050;2023-06-14T10:51:37;2.63;;;1.75;;
80891;SDS011;70343;51.530;5.050;2023-06-14T10:59:15;2.28;;;1.55;;
80891;SDS011;70343;51.530;5.050;2023-06-14T11:04:50;2.33;;;1.40;;
80891;SDS011;70343;51.530;5.050;2023-06-14T11:13:05;1.83;;;1.13;;
80891;SDS011;70343;51.530;5.050;2023-06-14T11:15:32;2.72;;;1.50;;
80891;SDS011;70343;51.530;5.050;2023-06-14T11:18:02;1.80;;;1.38;;
80891;SDS011;70343;51.530;5.050;2023-06-14T11:20:33;2.67;;;1.30;;
80891;SDS011;70343;51.530;5.050;2023-06-14T11:23:00;3.13;;;1.80;;
80891;SDS011;70343;51.530;5.050;2023-06-14T11:25:25;2.75;;;1.52;;
80891;SDS011;70343;51.530;5.050;2023-06-14T11:27:53;1.63;;;1.52;;
80891;SDS011;70343;51.530;5.050;2023-06-14T11:30:19;2.35;;;1.90;;
80891;SDS011;70343;51.530;5.050;2023-06-14T11:32:48;2.83;;;1.80;;
80891;SDS011;70343;51.530;5.050;2023-06-14T11:35:15;1.65;;;1.52;;
80891;SDS011;70343;51.530;5.050;2023-06-14T11:37:42;3.88;;;1.45;;
80891;SDS011;70343;51.530;5.050;2023-06-14T11:40:10;2.25;;;1.50;;
80891;SDS011;70343;51.530;5.050;2023-06-14T11:42:37;2.60;;;1.52;;
80891;SDS011;70343;51.530;5.050;2023-06-14T11:45:04;3.25;;;1.60;;
80891;SDS011;70343;51.530;5.050;2023-06-14T11:47:36;2.50;;;1.65;;
80891;SDS011;70343;51.530;5.050;2023-06-14T11:50:04;3.95;;;1.85;;
80891;SDS011;70343;51.530;5.050;2023-06-14T11:52:31;4.45;;;2.08;;
80891;SDS011;70343;51.530;5.050;2023-06-14T11:54:57;2.97;;;1.83;;
80891;SDS011;70343;51.530;5.050;2023-06-14T11:57:23;2.28;;;1.60;;
80891;SDS011;70343;51.530;5.050;2023-06-14T11:59:49;2.47;;;1.83;;
80891;SDS011;70343;51.530;5.050;2023-06-14T12:02:15;3.38;;;1.73;;
80891;SDS011;70343;51.530;5.050;2023-06-14T12:04:46;2.40;;;1.63;;
80891;SDS011;70343;51.530;5.050;2023-06-14T12:07:16;2.47;;;1.45;;
80891;SDS011;70343;51.530;5.050;2023-06-14T12:12:22;1.90;;;1.60;;
80891;SDS011;70343;51.530;5.050;2023-06-14T12:14:51;1.80;;;1.50;;
80891;SDS011;70343;51.530;5.050;2023-06-14T12:17:18;3.53;;;1.58;;
80891;SDS011;70343;51.530;5.050;2023-06-14T12:19:44;2.55;;;1.90;;
80891;SDS011;70343;51.530;5.050;2023-06-14T12:22:11;1.88;;;1.35;;
80891;SDS011;70343;51.530;5.050;2023-06-14T12:24:37;1.67;;;1.58;;
80891;SDS011;70343;51.530;5.050;2023-06-14T12:27:04;1.88;;;1.52;;
80891;SDS011;70343;51.530;5.050;2023-06-14T12:29:30;2.10;;;1.90;;
80891;SDS011;70343;51.530;5.050;2023-06-14T12:31:56;3.53;;;1.83;;
80891;SDS011;70343;51.530;5.050;2023-06-14T12:34:22;3.80;;;1.60;;
80891;SDS011;70343;51.530;5.050;2023-06-14T12:36:51;2.85;;;1.88;;
80891;SDS011;70343;51.530;5.050;2023-06-14T12:39:18;5.43;;;1.75;;
80891;SDS011;70343;51.530;5.050;2023-06-14T12:41:44;4.97;;;1.65;;
80891;SDS011;70343;51.530;5.050;2023-06-14T12:44:12;1.75;;;1.60;;
80891;SDS011;70343;51.530;5.050;2023-06-14T12:46:39;2.63;;;1.42;;
80891;SDS011;70343;51.530;5.050;2023-06-14T12:49:05;4.93;;;1.50;;
80891;SDS011;70343;51.530;5.050;2023-06-14T12:51:32;2.60;;;1.77;;
80891;SDS011;70343;51.530;5.050;2023-06-14T12:53:58;3.72;;;1.98;;
80891;SDS011;70343;51.530;5.050;2023-06-14T12:56:24;3.72;;;1.60;;
80891;SDS011;70343;51.530;5.050;2023-06-14T12:58:49;3.05;;;1.55;;
80891;SDS011;70343;51.530;5.050;2023-06-14T13:01:15;2.25;;;2.00;;
80891;SDS011;70343;51.530;5.050;2023-06-14T13:03:40;1.45;;;1.35;;
80891;SDS011;70343;51.530;5.050;2023-06-14T13:06:05;2.42;;;1.60;;
80891;SDS011;70343;51.530;5.050;2023-06-14T13:08:31;3.65;;;1.70;;
80891;SDS011;70343;51.530;5.050;2023-06-14T13:10:56;3.45;;;1.77;;
80891;SDS011;70343;51.530;5.050;2023-06-14T13:13:22;3.75;;;1.70;;
80891;SDS011;70343;51.530;5.050;2023-06-14T13:15:48;2.33;;;1.80;;
80891;SDS011;70343;51.530;5.050;2023-06-14T13:18:15;3.45;;;1.73;;
80891;SDS011;70343;51.530;5.050;2023-06-14T13:20:41;2.03;;;1.83;;
80891;SDS011;70343;51.530;5.050;2023-06-14T13:23:06;2.22;;;2.03;;
80891;SDS011;70343;51.530;5.050;2023-06-14T13:25:33;6.78;;;1.90;;
80891;SDS011;70343;51.530;5.050;2023-06-14T13:27:59;3.78;;;1.73;;
80891;SDS011;70343;51.530;5.050;2023-06-14T13:30:24;2.85;;;1.70;;
80891;SDS011;70343;51.530;5.050;2023-06-14T13:32:50;2.85;;;2.00;;
80891;SDS011;70343;51.530;5.050;2023-06-14T13:35:17;2.35;;;2.03;;
80891;SDS011;70343;51.530;5.050;2023-06-14T13:37:43;2.30;;;1.70;;
80891;SDS011;70343;51.530;5.050;2023-06-14T13:40:09;3.47;;;1.92;;
80891;SDS011;70343;51.530;5.050;2023-06-14T13:42:34;2.30;;;2.08;;
80891;SDS011;70343;51.530;5.050;2023-06-14T13:45:01;2.92;;;1.83;;
80891;SDS011;70343;51.530;5.050;2023-06-14T13:47:28;2.17;;;1.50;;
80891;SDS011;70343;51.530;5.050;2023-06-14T13:49:53;3.40;;;1.80;;
80891;SDS011;70343;51.530;5.050;2023-06-14T13:52:19;2.28;;;1.60;;
80891;SDS011;70343;51.530;5.050;2023-06-14T13:54:44;2.78;;;1.67;;
80891;SDS011;70343;51.530;5.050;2023-06-14T13:57:10;4.28;;;1.80;;
80891;SDS011;70343;51.530;5.050;2023-06-14T13:59:38;3.53;;;1.83;;
80891;SDS011;70343;51.530;5.050;2023-06-14T14:02:04;2.67;;;1.73;;
80891;SDS011;70343;51.530;5.050;2023-06-14T14:04:31;2.17;;;1.45;;
80891;SDS011;70343;51.530;5.050;2023-06-14T14:06:56;2.22;;;1.55;;
80891;SDS011;70343;51.530;5.050;2023-06-14T14:09:22;1.92;;;1.50;;
80891;SDS011;70343;51.530;5.050;2023-06-14T14:11:48;1.92;;;1.50;;
80891;SDS011;70343;51.530;5.050;2023-06-14T14:14:15;2.60;;;1.50;;
80891;SDS011;70343;51.530;5.050;2023-06-14T14:16:41;2.10;;;1.90;;
80891;SDS011;70343;51.530;5.050;2023-06-14T14:19:07;3.40;;;1.70;;
80891;SDS011;70343;51.530;5.050;2023-06-14T14:21:32;1.98;;;1.73;;
80891;SDS011;70343;51.530;5.050;2023-06-14T14:23:58;2.58;;;1.63;;
80891;SDS011;70343;51.530;5.050;2023-06-14T14:26:24;2.70;;;1.80;;
80891;SDS011;70343;51.530;5.050;2023-06-14T14:28:50;3.55;;;1.50;;
80891;SDS011;70343;51.530;5.050;2023-06-14T14:31:16;2.10;;;1.55;;
80891;SDS011;70343;51.530;5.050;2023-06-14T14:33:42;2.85;;;1.50;;
80891;SDS011;70343;51.530;5.050;2023-06-14T14:36:07;1.58;;;1.33;;
80891;SDS011;70343;51.530;5.050;2023-06-14T14:38:33;2.05;;;1.50;;
80891;SDS011;70343;51.530;5.050;2023-06-14T14:40:59;4.70;;;1.77;;
80891;SDS011;70343;51.530;5.050;2023-06-14T14:43:24;1.77;;;1.63;;
80891;SDS011;70343;51.530;5.050;2023-06-14T14:45:50;2.13;;;1.50;;
80891;SDS011;70343;51.530;5.050;2023-06-14T14:48:15;3.60;;;1.58;;
80891;SDS011;70343;51.530;5.050;2023-06-14T14:50:41;1.95;;;1.52;;
80891;SDS011;70343;51.530;5.050;2023-06-14T14:53:06;4.95;;;1.70;;
80891;SDS011;70343;51.530;5.050;2023-06-14T14:55:32;2.90;;;1.40;;
80891;SDS011;70343;51.530;5.050;2023-06-14T14:58:00;3.53;;;1.50;;
80891;SDS011;70343;51.530;5.050;2023-06-14T15:00:26;2.20;;;1.50;;
80891;SDS011;70343;51.530;5.050;2023-06-14T15:02:51;3.05;;;1.38;;
80891;SDS011;70343;51.530;5.050;2023-06-14T15:05:17;3.78;;;1.90;;
80891;SDS011;70343;51.530;5.050;2023-06-14T15:07:42;2.13;;;1.40;;
80891;SDS011;70343;51.530;5.050;2023-06-14T15:10:10;1.40;;;1.23;;
80891;SDS011;70343;51.530;5.050;2023-06-14T15:12:35;2.63;;;1.40;;